Time;durP1;ratioP1;P1;durP2;ratioP2;P2;SDS_P1;SDS_P2;PMS_P1;PMS_P2;Temp;Humidity;BMP_temperature;BMP_pressure;BME280_temperature;BME280_humidity;BME280_pressure;Samples;Min_cycle;Max_cycle;Signal;HPM_P1;HPM_P2
2022/05/12 00:01:30;;;;;;;9.43;2.20;;;11.10;99.90;;;;;;6217317;23;20437;-89
2022/05/12 00:03:56;;;;;;;7.70;1.88;;;11.00;99.90;;;;;;6214434;23;20455;-89
2022/05/12 00:06:22;;;;;;;11.32;2.60;;;11.00;99.90;;;;;;6214298;23;20444;-89
2022/05/12 00:08:47;;;;;;;10.43;2.55;;;11.00;99.90;;;;;;6189754;23;20028;-90
2022/05/12 00:11:13;;;;;;;9.27;2.40;;;10.90;99.90;;;;;;6214917;23;20027;-89
2022/05/12 00:13:38;;;;;;;10.45;2.25;;;10.90;99.90;;;;;;6213905;23;20017;-87
2022/05/12 00:16:04;;;;;;;11.95;2.50;;;10.80;99.90;;;;;;6214861;23;20024;-88
2022/05/12 00:18:30;;;;;;;11.52;2.40;;;10.80;99.90;;;;;;6214781;23;20013;-89
2022/05/12 00:20:55;;;;;;;13.82;2.38;;;10.70;99.90;;;;;;6213565;23;20048;-89
2022/05/12 00:23:26;;;;;;;8.23;2.22;;;10.70;99.90;;;;;;6214764;23;20023;-88
2022/05/12 00:25:52;;;;;;;9.90;2.30;;;10.60;99.90;;;;;;6216160;23;20056;-88
2022/05/12 00:28:20;;;;;;;8.73;2.40;;;10.60;99.90;;;;;;6215930;23;20017;-88
2022/05/12 00:30:48;;;;;;;10.27;2.40;;;10.60;99.90;;;;;;6216488;23;20023;-90
2022/05/12 00:33:15;;;;;;;10.57;2.17;;;10.50;99.90;;;;;;6214820;23;20025;-89
2022/05/12 00:35:42;;;;;;;8.38;2.03;;;10.40;99.90;;;;;;6215461;23;20020;-90
2022/05/12 00:38:08;;;;;;;8.73;2.22;;;10.40;99.90;;;;;;6225714;23;20020;-90
2022/05/12 00:40:34;;;;;;;8.07;2.00;;;10.30;99.90;;;;;;6217657;23;20071;-89
2022/05/12 00:43:08;;;;;;;7.57;2.13;;;10.30;99.90;;;;;;6215428;23;20012;-89
2022/05/12 00:45:35;;;;;;;7.88;2.63;;;10.30;99.90;;;;;;6220511;23;20020;-90
2022/05/12 00:48:03;;;;;;;8.07;2.05;;;10.30;99.90;;;;;;6222549;23;20084;-89
2022/05/12 00:50:44;;;;;;;7.32;2.20;;;10.20;99.90;;;;;;6216213;23;20020;-89
2022/05/12 00:53:12;;;;;;;9.10;2.08;;;10.10;99.90;;;;;;6216202;23;20325;-91
2022/05/12 00:55:41;;;;;;;8.38;1.90;;;10.10;99.90;;;;;;6213414;23;20444;-88
2022/05/12 00:58:10;;;;;;;7.00;2.10;;;10.10;99.90;;;;;;6219699;23;20027;-89
2022/05/12 01:00:37;;;;;;;7.82;1.98;;;10.10;99.90;;;;;;6214736;23;20063;-88
2022/05/12 01:03:09;;;;;;;11.07;2.47;;;10.00;99.90;;;;;;6213514;23;20052;-88
2022/05/12 01:05:34;;;;;;;9.10;2.05;;;10.00;99.90;;;;;;6216332;23;20392;-88
2022/05/12 01:08:01;;;;;;;7.22;2.00;;;10.00;99.90;;;;;;6216184;23;20448;-89
2022/05/12 01:10:29;;;;;;;11.88;2.40;;;9.90;99.90;;;;;;6215550;23;20020;-89
2022/05/12 01:12:54;;;;;;;11.10;2.17;;;9.90;99.90;;;;;;6216044;23;20064;-89
2022/05/12 01:15:24;;;;;;;9.90;2.25;;;9.80;99.90;;;;;;6214741;23;20020;-88
2022/05/12 01:17:59;;;;;;;10.77;2.33;;;9.80;99.90;;;;;;6215221;23;20397;-89
2022/05/12 01:20:25;;;;;;;7.18;1.90;;;9.80;99.90;;;;;;6216148;23;20024;-87
2022/05/12 01:23:10;;;;;;;11.13;2.58;;;9.70;99.90;;;;;;6213962;23;20017;-88
2022/05/12 01:25:36;;;;;;;9.23;2.10;;;9.80;99.90;;;;;;6213315;23;20025;-88
2022/05/12 01:28:02;;;;;;;6.82;2.08;;;9.70;99.90;;;;;;6216009;23;20027;-88
2022/05/12 01:30:27;;;;;;;8.52;2.03;;;9.60;99.90;;;;;;6213305;23;20016;-89
2022/05/12 01:32:53;;;;;;;10.05;2.38;;;9.60;99.90;;;;;;6216198;23;20023;-89
2022/05/12 01:35:21;;;;;;;9.23;2.33;;;9.60;99.90;;;;;;6216442;23;20348;-89
2022/05/12 01:37:47;;;;;;;8.57;2.30;;;9.60;99.90;;;;;;6214256;23;20512;-89
2022/05/12 01:40:17;;;;;;;10.20;2.70;;;9.60;99.90;;;;;;6214416;23;20029;-88
2022/05/12 01:42:43;;;;;;;11.30;2.83;;;9.50;99.90;;;;;;6213829;23;20095;-88
2022/05/12 01:45:10;;;;;;;10.77;2.10;;;9.60;99.90;;;;;;6214650;23;20052;-91
2022/05/12 01:47:36;;;;;;;9.13;2.38;;;9.60;99.90;;;;;;6213981;23;20036;-89
2022/05/12 01:50:04;;;;;;;9.57;3.30;;;9.60;99.90;;;;;;6213899;23;20027;-88
2022/05/12 01:52:29;;;;;;;6.53;2.00;;;9.50;99.90;;;;;;6214948;23;20091;-87
2022/05/12 01:54:55;;;;;;;10.35;2.70;;;9.50;99.90;;;;;;6216104;23;20044;-87
2022/05/12 01:57:22;;;;;;;8.95;2.80;;;9.50;99.90;;;;;;6214315;23;20337;-87
2022/05/12 01:59:49;;;;;;;9.85;3.30;;;9.50;99.90;;;;;;6191091;23;20055;-88
2022/05/12 02:02:15;;;;;;;8.68;2.15;;;9.50;99.90;;;;;;6216177;23;20500;-87
2022/05/12 02:04:41;;;;;;;7.55;2.10;;;9.50;99.90;;;;;;6215686;23;20028;-87
2022/05/12 02:07:07;;;;;;;7.25;2.10;;;9.50;99.90;;;;;;6212919;23;20021;-88
2022/05/12 02:09:33;;;;;;;7.82;2.55;;;9.50;99.90;;;;;;6216038;23;20087;-89
2022/05/12 02:11:58;;;;;;;11.25;2.80;;;9.50;99.90;;;;;;6214847;23;20390;-89
2022/05/12 02:14:24;;;;;;;9.95;3.13;;;9.50;99.90;;;;;;6213165;23;20047;-90
2022/05/12 02:16:49;;;;;;;10.38;2.83;;;9.40;99.90;;;;;;6215553;23;20017;-87
2022/05/12 02:19:15;;;;;;;9.27;2.33;;;9.40;99.90;;;;;;6215267;23;20044;-87
2022/05/12 02:21:41;;;;;;;8.93;2.40;;;9.30;99.90;;;;;;6212578;23;20020;-87
2022/05/12 02:24:07;;;;;;;8.15;2.42;;;9.40;99.90;;;;;;6215112;23;20047;-87
2022/05/12 02:26:32;;;;;;;10.48;2.92;;;9.30;99.90;;;;;;6215607;23;20017;-87
2022/05/12 02:28:59;;;;;;;10.25;2.70;;;9.30;99.90;;;;;;6187860;23;20073;-87
2022/05/12 02:31:24;;;;;;;8.77;2.78;;;9.20;99.90;;;;;;6222898;23;20016;-86
2022/05/12 02:33:50;;;;;;;8.88;3.03;;;9.30;99.90;;;;;;6215746;23;20013;-88
2022/05/12 02:36:16;;;;;;;10.20;3.45;;;9.30;99.90;;;;;;6216065;23;20020;-87
2022/05/12 02:38:41;;;;;;;8.82;2.40;;;9.30;99.90;;;;;;6214413;23;20345;-87
2022/05/12 02:41:07;;;;;;;10.68;2.67;;;9.30;99.90;;;;;;6221719;23;20017;-88
2022/05/12 02:43:33;;;;;;;8.43;2.60;;;9.20;99.90;;;;;;6219132;23;20067;-87
2022/05/12 02:46:11;;;;;;;9.60;2.97;;;9.20;99.90;;;;;;6190006;23;20381;-88
2022/05/12 02:48:39;;;;;;;7.28;2.60;;;9.20;99.90;;;;;;6215954;23;20449;-87
2022/05/12 02:51:06;;;;;;;9.85;2.83;;;9.20;99.90;;;;;;6213990;23;20020;-88
2022/05/12 02:53:32;;;;;;;8.35;3.20;;;9.10;99.90;;;;;;6213542;23;20013;-88
2022/05/12 02:55:59;;;;;;;9.55;2.88;;;9.10;99.90;;;;;;6212223;23;20036;-89
2022/05/12 02:58:25;;;;;;;11.38;4.22;;;9.20;99.90;;;;;;6215567;23;20025;-87
2022/05/12 03:00:52;;;;;;;9.85;3.20;;;9.20;99.90;;;;;;6213516;23;20020;-88
2022/05/12 03:03:18;;;;;;;9.48;3.00;;;9.10;99.90;;;;;;6218007;23;20017;-89
2022/05/12 03:05:43;;;;;;;8.20;2.60;;;9.20;99.90;;;;;;6214398;23;20023;-88
2022/05/12 03:08:09;;;;;;;9.05;2.75;;;9.10;99.90;;;;;;6213631;23;20016;-88
2022/05/12 03:10:36;;;;;;;7.22;2.33;;;9.10;99.90;;;;;;6214235;23;20471;-89
2022/05/12 03:13:03;;;;;;;11.45;3.17;;;9.00;99.90;;;;;;6214930;23;20013;-88
2022/05/12 03:15:29;;;;;;;8.73;2.80;;;9.00;99.90;;;;;;6213577;23;20023;-88
2022/05/12 03:17:56;;;;;;;9.00;2.50;;;8.90;99.90;;;;;;6212068;23;20111;-89
2022/05/12 03:20:23;;;;;;;9.85;2.90;;;8.80;99.90;;;;;;6213782;23;20040;-89
2022/05/12 03:22:49;;;;;;;11.45;3.28;;;8.70;99.90;;;;;;6214536;23;20020;-88
2022/05/12 03:25:16;;;;;;;9.48;2.88;;;8.70;99.90;;;;;;6214249;23;20112;-88
2022/05/12 03:27:42;;;;;;;10.15;3.00;;;8.60;99.90;;;;;;6214856;23;20016;-89
2022/05/12 03:30:12;;;;;;;10.32;3.20;;;8.60;99.90;;;;;;6213973;23;20441;-88
2022/05/12 03:32:38;;;;;;;11.05;3.35;;;8.50;99.90;;;;;;6215295;23;20013;-88
2022/05/12 03:35:05;;;;;;;10.10;3.05;;;8.40;99.90;;;;;;6215358;23;20008;-89
2022/05/12 03:37:31;;;;;;;9.45;2.92;;;8.40;99.90;;;;;;6214548;23;20043;-88
2022/05/12 03:39:57;;;;;;;10.95;3.22;;;8.40;99.90;;;;;;6215670;23;20099;-88
2022/05/12 03:42:22;;;;;;;12.18;3.30;;;8.40;99.90;;;;;;6217534;23;20056;-88
2022/05/12 03:44:51;;;;;;;8.35;3.28;;;8.40;99.90;;;;;;6215200;23;20020;-88
2022/05/12 03:47:22;;;;;;;10.90;3.47;;;8.40;99.90;;;;;;6215313;23;20021;-88
2022/05/12 03:49:49;;;;;;;11.63;3.50;;;8.40;99.90;;;;;;6217079;23;20020;-88
2022/05/12 03:52:16;;;;;;;10.77;3.15;;;8.40;99.90;;;;;;6216394;23;20012;-88
2022/05/12 03:54:42;;;;;;;10.13;3.03;;;8.40;99.90;;;;;;6217103;23;20314;-88
2022/05/12 03:57:08;;;;;;;10.63;3.08;;;8.40;99.90;;;;;;6217658;23;20083;-88
2022/05/12 03:59:34;;;;;;;8.75;2.90;;;8.40;99.90;;;;;;6216307;23;20021;-88
2022/05/12 04:02:00;;;;;;;10.88;3.22;;;8.40;99.90;;;;;;6215298;23;20009;-89
2022/05/12 04:04:29;;;;;;;13.07;3.40;;;8.40;99.90;;;;;;6216076;23;20071;-89
2022/05/12 04:06:55;;;;;;;11.07;3.30;;;8.30;99.90;;;;;;6222112;23;20422;-88
2022/05/12 04:09:20;;;;;;;11.60;3.08;;;8.40;99.90;;;;;;6217217;23;20014;-88
2022/05/12 04:11:46;;;;;;;13.35;4.07;;;8.30;99.90;;;;;;6216859;23;20008;-88
2022/05/12 04:14:11;;;;;;;13.75;3.55;;;8.40;99.90;;;;;;6214506;23;20049;-89
2022/05/12 04:16:38;;;;;;;10.77;3.22;;;8.40;99.90;;;;;;6221201;23;20017;-88
2022/05/12 04:19:06;;;;;;;12.25;3.40;;;8.40;99.90;;;;;;6244069;23;20015;-87
2022/05/12 04:21:37;;;;;;;11.07;3.40;;;8.40;99.90;;;;;;6225179;23;20020;-89
2022/05/12 04:24:05;;;;;;;13.30;3.70;;;8.50;99.90;;;;;;6215885;23;20025;-88
2022/05/12 04:26:32;;;;;;;10.77;3.25;;;8.50;99.90;;;;;;6223589;23;20020;-88
2022/05/12 04:28:57;;;;;;;13.15;3.67;;;8.60;99.90;;;;;;6217995;23;20013;-88
2022/05/12 04:31:23;;;;;;;11.25;3.65;;;8.60;99.90;;;;;;6215003;23;20526;-88
2022/05/12 04:36:33;;;;;;;15.38;3.83;;;8.70;99.90;;;;;;6221334;23;20025;-88
2022/05/12 04:38:59;;;;;;;15.07;4.20;;;8.80;99.90;;;;;;6216548;23;20016;-87
2022/05/12 04:41:25;;;;;;;12.73;4.40;;;8.90;99.90;;;;;;6216250;23;20080;-88
2022/05/12 04:43:52;;;;;;;13.95;4.10;;;8.80;99.90;;;;;;6214796;23;20021;-88
2022/05/12 04:46:17;;;;;;;14.13;4.63;;;8.90;99.90;;;;;;6214922;23;20023;-88
2022/05/12 04:48:43;;;;;;;14.18;4.13;;;9.00;99.90;;;;;;6216755;23;20020;-89
2022/05/12 04:51:09;;;;;;;13.77;4.20;;;9.00;99.90;;;;;;6218231;23;20016;-88
2022/05/12 04:53:35;;;;;;;14.20;4.13;;;9.10;99.90;;;;;;6216906;23;20075;-88
2022/05/12 04:56:01;;;;;;;14.50;4.50;;;9.10;99.90;;;;;;6216106;23;20016;-88
2022/05/12 04:58:27;;;;;;;12.43;4.25;;;9.10;99.90;;;;;;6217608;23;20452;-89
2022/05/12 05:00:52;;;;;;;13.48;4.72;;;9.10;99.90;;;;;;6217094;23;20444;-88
2022/05/12 05:03:18;;;;;;;12.98;4.63;;;9.20;99.90;;;;;;6214858;23;20472;-88
2022/05/12 05:05:44;;;;;;;15.98;5.60;;;9.30;99.90;;;;;;6215233;23;20087;-88
2022/05/12 05:08:14;;;;;;;15.27;5.03;;;9.30;99.90;;;;;;6217039;23;20107;-88
2022/05/12 05:10:39;;;;;;;15.07;5.20;;;9.30;99.90;;;;;;6218770;23;20044;-88
2022/05/12 05:13:05;;;;;;;16.20;5.70;;;9.40;99.90;;;;;;6216933;23;20016;-88
2022/05/12 05:15:31;;;;;;;14.30;5.88;;;9.50;99.90;;;;;;6215197;23;20075;-88
2022/05/12 05:17:57;;;;;;;17.88;5.97;;;9.50;99.90;;;;;;6214105;23;20051;-88
2022/05/12 05:20:25;;;;;;;17.98;6.47;;;9.60;99.90;;;;;;6216903;23;20020;-89
2022/05/12 05:22:52;;;;;;;19.92;6.97;;;9.60;99.90;;;;;;6215384;23;20103;-88
2022/05/12 05:25:18;;;;;;;16.70;6.80;;;9.70;99.90;;;;;;6216417;23;20108;-88
2022/05/12 05:27:45;;;;;;;16.00;7.13;;;9.70;99.90;;;;;;6216319;23;20072;-88
2022/05/12 05:30:14;;;;;;;17.95;6.55;;;9.80;99.90;;;;;;6214407;23;20020;-88
2022/05/12 05:32:40;;;;;;;16.20;6.82;;;9.90;99.90;;;;;;6217391;23;20368;-88
2022/05/12 05:35:07;;;;;;;17.77;7.07;;;9.90;99.90;;;;;;6216418;23;20013;-88
2022/05/12 05:37:33;;;;;;;18.63;7.00;;;10.00;99.90;;;;;;6214506;23;20032;-88
2022/05/12 05:39:59;;;;;;;15.70;6.65;;;10.10;99.90;;;;;;6216421;23;20017;-88
2022/05/12 05:42:25;;;;;;;19.15;7.80;;;10.10;99.90;;;;;;6223039;23;20467;-89
2022/05/12 05:44:50;;;;;;;18.65;7.82;;;10.30;99.90;;;;;;6240388;23;20036;-94
2022/05/12 05:47:16;;;;;;;19.75;7.40;;;10.30;99.90;;;;;;6236497;23;20087;-95
2022/05/12 05:49:42;;;;;;;18.95;7.40;;;10.40;99.90;;;;;;6217847;23;20015;-94
2022/05/12 05:54:53;;;;;;;17.23;6.97;;;10.60;99.90;;;;;;6215551;23;20029;-95
2022/05/12 05:57:27;;;;;;;17.65;7.43;;;10.60;99.90;;;;;;6214953;23;20384;-95
2022/05/12 05:59:56;;;;;;;17.67;7.57;;;10.70;99.90;;;;;;6216912;23;20024;-94
2022/05/12 06:02:22;;;;;;;15.95;7.47;;;10.70;99.90;;;;;;6219609;23;20013;-95
2022/05/12 06:04:48;;;;;;;17.40;7.28;;;10.80;99.90;;;;;;6215142;23;20040;-94
2022/05/12 06:07:14;;;;;;;15.52;7.30;;;11.30;99.90;;;;;;6217390;23;20024;-92
2022/05/12 06:09:41;;;;;;;16.83;7.60;;;11.00;99.90;;;;;;6219821;23;20012;-94
2022/05/12 06:12:10;;;;;;;19.70;7.97;;;11.10;99.90;;;;;;6224121;23;20064;-94
2022/05/12 06:14:37;;;;;;;16.73;7.22;;;11.10;99.90;;;;;;6224514;23;20020;-92
2022/05/12 06:17:05;;;;;;;16.30;6.55;;;11.20;99.90;;;;;;6218788;23;20408;-94
2022/05/12 06:19:31;;;;;;;19.33;7.90;;;11.30;99.90;;;;;;6230851;23;20007;-94
2022/05/12 06:21:57;;;;;;;15.38;6.93;;;11.30;99.90;;;;;;6232291;23;20329;-88
2022/05/12 06:24:23;;;;;;;16.20;6.78;;;11.50;99.90;;;;;;6223106;23;20055;-93
2022/05/12 06:27:03;;;;;;;15.57;7.05;;;12.10;99.90;;;;;;6187897;23;20017;-92
2022/05/12 06:29:45;;;;;;;20.60;7.72;;;11.60;99.90;;;;;;6204440;23;20051;-92
2022/05/12 06:32:22;;;;;;;16.50;6.50;;;11.80;99.90;;;;;;6193897;23;20019;-94
2022/05/12 06:34:56;;;;;;;17.10;7.25;;;11.60;99.90;;;;;;6189598;23;20013;-94
2022/05/12 06:37:28;;;;;;;19.80;7.57;;;12.00;99.90;;;;;;6190015;23;20028;-93
2022/05/12 06:39:57;;;;;;;14.88;7.13;;;12.80;99.90;;;;;;6189392;23;20017;-94
2022/05/12 06:42:22;;;;;;;17.77;7.57;;;12.90;99.90;;;;;;6190157;23;20384;-93
2022/05/12 06:44:51;;;;;;;18.67;7.28;;;12.50;99.90;;;;;;6213215;23;20020;-93
2022/05/12 06:47:17;;;;;;;14.77;7.00;;;12.50;99.90;;;;;;6189240;23;20027;-93
2022/05/12 06:49:50;;;;;;;16.17;6.90;;;12.00;99.90;;;;;;6217398;23;20013;-93
2022/05/12 06:52:26;;;;;;;17.40;7.10;;;12.40;99.90;;;;;;6190381;23;20023;-92
2022/05/12 06:54:58;;;;;;;17.02;6.68;;;12.70;99.90;;;;;;6184585;23;20571;-95
2022/05/12 06:57:43;;;;;;;16.50;6.65;;;13.40;99.90;;;;;;6217074;23;20081;-90
2022/05/12 07:00:20;;;;;;;15.57;5.85;;;13.00;99.90;;;;;;6190395;23;20476;-90
2022/05/12 07:03:37;;;;;;;14.88;5.63;;;12.90;99.90;;;;;;6211975;23;20067;-91
2022/05/12 07:06:04;;;;;;;15.73;5.63;;;13.00;99.90;;;;;;6214783;23;20083;-93
2022/05/12 07:08:30;;;;;;;14.20;5.35;;;13.30;99.90;;;;;;6214711;23;20073;-92
2022/05/12 07:10:55;;;;;;;11.77;5.03;;;13.30;99.90;;;;;;6189561;23;20013;-94
2022/05/12 07:13:21;;;;;;;13.88;5.20;;;13.90;99.90;;;;;;6205098;23;20314;-93
2022/05/12 07:15:53;;;;;;;14.48;5.30;;;14.40;99.90;;;;;;6222821;23;20016;-92
2022/05/12 07:18:19;;;;;;;11.77;4.80;;;14.60;99.90;;;;;;6220121;23;20021;-92
2022/05/12 07:27:02;;;;;;;11.50;4.22;;;14.40;99.90;;;;;;6216150;23;20028;-92
2022/05/12 07:29:28;;;;;;;13.60;4.30;;;14.30;99.90;;;;;;6215988;23;20075;-95
2022/05/12 07:31:54;;;;;;;10.30;4.18;;;14.30;99.90;;;;;;6235164;23;20039;-95
2022/05/12 07:34:20;;;;;;;12.05;4.25;;;14.40;99.90;;;;;;6242626;23;20068;-95
2022/05/12 07:36:50;;;;;;;10.35;3.97;;;14.80;99.90;;;;;;6229926;23;20024;-94
2022/05/12 07:39:28;;;;;;;12.70;4.35;;;14.80;99.90;;;;;;6225041;23;20337;-94
2022/05/12 07:41:59;;;;;;;10.35;4.13;;;15.40;99.90;;;;;;6216120;23;20024;-96
2022/05/12 07:44:37;;;;;;;11.57;4.10;;;15.20;99.90;;;;;;6217282;23;20020;-94
2022/05/12 07:47:13;;;;;;;11.90;3.55;;;14.70;99.90;;;;;;6201577;23;20087;-94
2022/05/12 07:49:40;;;;;;;10.90;4.00;;;15.40;99.90;;;;;;6130476;23;20018;-93
2022/05/12 07:52:22;;;;;;;12.93;4.10;;;16.00;99.90;;;;;;6129206;23;20056;-94
2022/05/12 07:54:48;;;;;;;9.55;3.55;;;15.70;99.90;;;;;;6156490;23;20022;-94
2022/05/12 07:57:23;;;;;;;10.63;3.20;;;15.30;99.90;;;;;;6129240;23;20036;-93
2022/05/12 07:59:49;;;;;;;8.90;3.20;;;15.20;99.90;;;;;;6129598;23;20018;-92
2022/05/12 08:02:20;;;;;;;10.05;3.63;;;15.20;99.90;;;;;;6127877;23;20020;-92
2022/05/12 08:04:46;;;;;;;11.25;3.95;;;15.50;99.90;;;;;;6122640;23;20026;-94
2022/05/12 08:07:12;;;;;;;11.25;3.60;;;15.80;99.90;;;;;;6125634;23;20041;-93
2022/05/12 08:09:37;;;;;;;11.10;3.80;;;15.80;99.90;;;;;;6125838;23;20025;-93
2022/05/12 08:12:03;;;;;;;11.20;4.07;;;15.40;99.90;;;;;;6124500;23;20018;-94
2022/05/12 08:14:29;;;;;;;8.75;3.40;;;15.90;99.90;;;;;;6140420;23;20005;-94
2022/05/12 08:16:55;;;;;;;9.73;3.42;;;15.80;99.90;;;;;;6141365;23;20013;-93
2022/05/12 08:19:27;;;;;;;12.52;3.70;;;15.80;99.90;;;;;;6134683;23;20025;-93
2022/05/12 08:21:55;;;;;;;12.48;3.85;;;15.80;99.90;;;;;;6128651;23;20154;-89
2022/05/12 08:24:52;;;;;;;10.48;3.88;;;16.00;99.90;;;;;;6132188;23;20042;-90
2022/05/12 08:27:35;;;;;;;10.27;3.75;;;16.20;99.90;;;;;;6134743;23;20076;-92
2022/05/12 08:30:09;;;;;;;;;;;17.10;99.90;;;;;;6128061;23;20010;-89
2022/05/12 08:32:44;;;;;;;10.80;3.40;;;16.30;99.90;;;;;;6125509;23;19917;-91
2022/05/12 08:35:11;;;;;;;9.68;3.55;;;16.30;99.90;;;;;;6128315;23;20018;-93
2022/05/12 08:37:40;;;;;;;11.55;3.22;;;16.40;99.90;;;;;;6149825;23;20017;-90
2022/05/12 08:40:11;;;;;;;8.82;3.08;;;17.40;99.90;;;;;;6164200;23;20029;-89
2022/05/12 08:42:46;;;;;;;7.32;2.60;;;16.40;99.90;;;;;;6139082;23;20064;-89
2022/05/12 08:45:17;;;;;;;9.70;3.38;;;15.80;99.90;;;;;;6132788;23;20106;-91
2022/05/12 08:47:46;;;;;;;9.93;3.55;;;16.40;99.90;;;;;;6129570;23;20009;-90
2022/05/12 08:50:41;;;;;;;10.43;3.63;;;16.40;99.90;;;;;;6156044;23;20093;-90
2022/05/12 08:53:17;;;;;;;10.13;3.08;;;16.60;99.90;;;;;;6137591;23;20014;-91
2022/05/12 08:56:04;;;;;;;9.18;2.85;;;16.70;99.90;;;;;;6154933;23;20010;-88
2022/05/12 08:58:36;;;;;;;9.55;2.47;;;16.90;99.90;;;;;;6130432;23;20021;-89
2022/05/12 09:01:06;;;;;;;8.25;2.50;;;17.00;99.90;;;;;;6155152;23;20334;-88
2022/05/12 09:03:39;;;;;;;9.38;2.70;;;17.30;99.90;;;;;;6148159;23;20024;-88
2022/05/12 09:06:13;;;;;;;7.45;2.47;;;17.10;99.90;;;;;;6115661;23;20465;-89
2022/05/12 09:08:59;;;;;;;10.77;2.85;;;17.00;99.90;;;;;;6128343;23;20029;-89
2022/05/12 09:11:51;;;;;;;9.05;2.72;;;17.00;99.90;;;;;;6130179;23;20014;-87
2022/05/12 09:14:39;;;;;;;8.30;2.92;;;17.20;99.90;;;;;;6129900;23;20021;-88
2022/05/12 09:17:04;;;;;;;8.77;2.60;;;17.40;99.90;;;;;;6129704;23;20460;-87
2022/05/12 09:19:31;;;;;;;8.65;2.70;;;17.70;99.90;;;;;;6129647;23;20100;-87
2022/05/12 09:21:56;;;;;;;10.73;3.20;;;17.60;99.90;;;;;;6128774;23;20029;-87
2022/05/12 09:24:22;;;;;;;9.93;2.88;;;17.90;99.90;;;;;;6157042;23;20009;-88
2022/05/12 09:26:51;;;;;;;9.10;3.05;;;17.90;99.90;;;;;;6155777;23;20053;-88
2022/05/12 09:29:27;;;;;;;8.88;2.70;;;17.90;99.90;;;;;;6155479;23;20010;-88
2022/05/12 09:32:02;;;;;;;11.02;2.60;;;18.00;99.90;;;;;;6129398;23;20048;-87
2022/05/12 09:34:32;;;;;;;7.80;2.28;;;18.30;99.90;;;;;;6129619;23;20521;-88
2022/05/12 09:37:14;;;;;;;8.45;2.63;;;17.50;99.90;;;;;;6128938;23;20018;-88
2022/05/12 09:39:44;;;;;;;8.32;2.45;;;17.60;99.90;;;;;;6129389;23;20068;-86
2022/05/12 09:42:27;;;;;;;10.75;2.88;;;17.30;99.90;;;;;;6129755;23;20447;-86
2022/05/12 09:45:00;;;;;;;8.60;2.83;;;17.40;99.90;;;;;;6154612;23;20053;-86
2022/05/12 09:47:28;;;;;;;9.23;3.03;;;17.90;99.90;;;;;;6156155;23;20520;-86
2022/05/12 09:50:17;;;;;;;9.30;2.90;;;17.90;99.90;;;;;;6128533;23;20029;-86
2022/05/12 09:52:57;;;;;;;7.90;2.20;;;18.00;99.90;;;;;;6155811;23;20114;-88
2022/05/12 09:55:28;;;;;;;7.18;2.17;;;18.20;99.90;;;;;;6155593;23;20029;-86
2022/05/12 09:57:54;;;;;;;7.30;2.30;;;18.90;99.90;;;;;;6151607;23;20096;-89
2022/05/12 10:00:50;;;;;;;8.90;2.65;;;18.80;99.90;;;;;;6130266;23;20080;-91
2022/05/12 10:09:18;;;;;;;9.10;2.50;;;19.00;99.90;;;;;;6134566;23;20022;-89
2022/05/12 10:12:24;;;;;;;9.18;2.35;;;19.00;99.90;;;;;;6137055;23;20061;-91
2022/05/12 10:15:17;;;;;;;11.55;2.38;;;18.50;99.90;;;;;;6155958;23;20049;-91
2022/05/12 10:18:01;;;;;;;9.87;2.77;;;18.10;99.90;;;;;;6130344;23;20084;-90
2022/05/12 10:20:28;;;;;;;;;;;18.00;99.90;;;;;;6161117;23;20245;-86
2022/05/12 10:23:04;;;;;;;8.65;2.17;;;17.80;99.90;;;;;;6155963;23;19916;-88
2022/05/12 10:26:01;;;;;;;7.55;2.25;;;18.40;99.90;;;;;;6128871;23;20093;-88
2022/05/12 10:28:47;;;;;;;8.27;2.05;;;18.70;99.90;;;;;;6157666;23;20022;-88
2022/05/12 10:31:28;;;;;;;9.73;2.47;;;18.90;99.90;;;;;;6155772;23;20049;-88
2022/05/12 10:34:23;;;;;;;7.43;1.80;;;18.90;99.90;;;;;;6154677;23;20468;-86
2022/05/12 10:37:21;;;;;;;9.57;2.25;;;19.00;99.90;;;;;;6154985;23;20020;-86
2022/05/12 10:40:23;;;;;;;8.63;2.40;;;18.90;99.90;;;;;;6153974;23;20105;-85
2022/05/12 10:43:13;;;;;;;7.93;2.22;;;19.00;99.60;;;;;;6128654;23;20025;-85
2022/05/12 10:46:21;;;;;;;5.95;1.77;;;19.80;99.90;;;;;;6155296;23;20020;-85
2022/05/12 10:48:59;;;;;;;8.23;1.92;;;18.00;99.90;;;;;;6129166;23;20067;-86
2022/05/12 10:51:44;;;;;;;9.55;2.67;;;18.90;99.90;;;;;;6131949;23;20140;-86
2022/05/12 10:54:20;;;;;;;9.15;2.10;;;19.10;99.60;;;;;;6154398;23;20747;-87
2022/05/12 10:56:51;;;;;;;7.13;2.20;;;19.10;99.90;;;;;;6155274;23;20018;-86
2022/05/12 10:59:17;;;;;;;7.78;2.17;;;19.50;99.90;;;;;;6154894;23;20505;-86
2022/05/12 11:02:08;;;;;;;8.75;2.00;;;19.50;99.90;;;;;;6128195;23;20021;-85
2022/05/12 11:04:49;;;;;;;8.82;1.95;;;19.30;97.80;;;;;;6128463;23;20362;-86
2022/05/12 11:07:49;;;;;;;6.03;1.80;;;19.10;95.70;;;;;;6154468;23;20024;-90
2022/05/12 11:10:46;;;;;;;7.43;2.05;;;19.30;96.80;;;;;;6154992;23;20455;-86
2022/05/12 11:13:29;;;;;;;5.80;1.70;;;19.20;95.40;;;;;;6148113;23;20013;-87
2022/05/12 11:15:58;;;;;;;5.57;1.75;;;19.20;95.50;;;;;;6153955;23;20026;-87
2022/05/12 11:18:41;;;;;;;8.30;2.20;;;19.30;97.20;;;;;;6129061;23;20013;-85
2022/05/12 11:21:17;;;;;;;8.85;2.00;;;19.40;95.00;;;;;;6155072;23;20353;-84
2022/05/12 11:24:07;;;;;;;7.70;2.28;;;19.40;94.90;;;;;;6155270;23;20010;-91
2022/05/12 11:27:07;;;;;;;8.50;1.70;;;19.40;94.70;;;;;;6130946;23;20037;-90
2022/05/12 11:30:09;;;;;;;6.43;1.83;;;19.40;92.50;;;;;;6158898;23;20061;-91
2022/05/12 11:32:50;;;;;;;6.65;1.80;;;19.20;92.50;;;;;;6159095;23;20032;-92
2022/05/12 11:35:21;;;;;;;6.38;1.60;;;19.00;94.30;;;;;;6157117;23;20009;-90
2022/05/12 11:38:02;;;;;;;5.85;1.77;;;18.90;94.00;;;;;;6131862;23;20040;-91
2022/05/12 11:40:40;;;;;;;4.93;1.63;;;19.00;92.90;;;;;;6138770;23;20577;-91
2022/05/12 11:46:35;;;;;;;6.20;1.80;;;18.90;92.60;;;;;;6140780;23;20025;-91
2022/05/12 11:49:08;;;;;;;8.48;1.98;;;18.90;95.00;;;;;;6129446;23;20094;-91
2022/05/12 11:52:10;;;;;;;4.82;1.60;;;19.10;93.70;;;;;;6153966;23;20017;-92
2022/05/12 11:55:22;;;;;;;6.80;1.70;;;19.10;90.70;;;;;;6155627;23;20021;-92
2022/05/12 11:58:11;;;;;;;5.97;2.00;;;18.20;91.60;;;;;;6130428;23;20338;-91
2022/05/12 12:00:44;;;;;;;10.00;2.33;;;18.40;92.30;;;;;;6157936;23;20018;-92
2022/05/12 12:03:18;;;;;;;6.97;2.10;;;18.40;95.20;;;;;;6131727;23;20018;-93
2022/05/12 12:06:01;;;;;;;7.18;2.35;;;18.30;92.40;;;;;;6162755;23;20021;-93
2022/05/12 12:08:45;;;;;;;7.35;2.00;;;18.50;93.10;;;;;;6137034;23;20017;-91
2022/05/12 12:11:14;;;;;;;;;;;19.10;93.70;;;;;;6158633;23;20017;-91
2022/05/12 12:14:01;;;;;;;7.30;1.92;;;19.50;92.40;;;;;;6156119;23;19924;-93
2022/05/12 12:16:51;;;;;;;8.20;2.22;;;20.40;91.70;;;;;;6163776;23;20044;-92
2022/05/12 12:19:50;;;;;;;7.57;2.10;;;19.90;93.70;;;;;;6157509;23;20021;-91
2022/05/12 12:22:43;;;;;;;7.97;2.42;;;20.10;91.90;;;;;;6043550;23;20019;-93
2022/05/12 12:25:55;;;;;;;9.10;2.00;;;19.90;91.10;;;;;;6071015;23;20029;-92
2022/05/12 12:28:42;;;;;;;6.88;1.95;;;20.00;90.40;;;;;;6131584;23;20021;-93
2022/05/12 12:31:39;;;;;;;7.43;2.00;;;20.00;92.80;;;;;;6157330;23;20020;-91
2022/05/12 12:34:14;;;;;;;5.28;1.85;;;20.50;90.00;;;;;;6143146;23;20064;-90
2022/05/12 12:36:43;;;;;;;8.18;2.22;;;20.70;92.80;;;;;;6131769;23;20024;-92
2022/05/12 12:39:12;;;;;;;7.35;2.13;;;20.80;91.60;;;;;;6154590;23;20101;-91
2022/05/12 12:42:05;;;;;;;8.68;2.47;;;20.70;93.00;;;;;;6130715;23;20022;-92
2022/05/12 12:44:48;;;;;;;8.82;2.65;;;20.30;89.80;;;;;;6130688;23;20020;-91
2022/05/12 12:47:45;;;;;;;7.20;2.25;;;20.60;90.80;;;;;;6130159;23;20444;-92
2022/05/12 12:50:16;;;;;;;8.65;2.78;;;20.60;91.10;;;;;;6130895;23;20789;-91
2022/05/12 12:52:47;;;;;;;9.73;2.30;;;20.90;90.70;;;;;;6129731;23;20014;-91
2022/05/12 12:58:26;;;;;;;7.82;2.10;;;20.10;91.20;;;;;;6130699;23;20101;-91
2022/05/12 13:01:19;;;;;;;6.95;2.20;;;19.70;91.40;;;;;;6130319;23;20504;-91
2022/05/12 13:03:52;;;;;;;7.78;1.98;;;20.30;87.90;;;;;;6152449;23;20024;-92
2022/05/12 13:06:36;;;;;;;7.07;2.20;;;20.50;90.30;;;;;;6130317;23;20433;-91
2022/05/12 13:09:37;;;;;;;6.35;2.20;;;19.70;90.40;;;;;;6155571;23;20456;-93
2022/05/12 13:12:20;;;;;;;7.97;1.95;;;19.00;88.80;;;;;;6130068;23;20338;-89
2022/05/12 13:14:50;;;;;;;7.25;2.13;;;19.80;89.10;;;;;;6136564;23;20076;-92
2022/05/12 13:17:31;;;;;;;6.15;1.80;;;20.00;91.00;;;;;;6154000;23;20455;-90
2022/05/12 13:20:09;;;;;;;6.20;1.80;;;19.90;87.80;;;;;;6153755;23;20068;-89
2022/05/12 13:22:49;;;;;;;5.85;1.98;;;19.20;90.60;;;;;;6154351;23;20020;-89
2022/05/12 13:25:23;;;;;;;6.57;1.90;;;19.60;87.40;;;;;;6155581;23;20021;-90
2022/05/12 13:27:49;;;;;;;7.47;2.00;;;20.00;89.30;;;;;;6153273;23;20021;-90
2022/05/12 13:30:24;;;;;;;7.25;2.10;;;20.30;90.40;;;;;;6154471;23;20022;-91
2022/05/12 13:33:21;;;;;;;7.25;2.10;;;20.30;86.40;;;;;;6154127;23;20013;-88
2022/05/12 13:35:56;;;;;;;6.80;2.15;;;20.00;90.00;;;;;;6153032;23;20067;-89
2022/05/12 13:39:00;;;;;;;6.30;1.80;;;20.20;90.70;;;;;;6166947;23;20067;-90